sensor_id;sensor_type;location;lat;lon;timestamp;pressure;altitude;pressure_sealevel;temperature;humidity
11345;BME280;5727;42.600;23.028;2023-06-10T00:01:37;93309.16;;;18.07;100.00
11345;BME280;5727;42.600;23.028;2023-06-10T00:04:04;93304.97;;;18.20;100.00
11345;BME280;5727;42.600;23.028;2023-06-10T00:06:31;93299.25;;;18.25;100.00
11345;BME280;5727;42.600;23.028;2023-06-10T00:09:01;93298.50;;;18.36;100.00
11345;BME280;5727;42.600;23.028;2023-06-10T00:11:30;93290.53;;;18.36;100.00
11345;BME280;5727;42.600;23.028;2023-06-10T00:13:56;93286.00;;;18.33;100.00
11345;BME280;5727;42.600;23.028;2023-06-10T00:16:23;93284.44;;;18.39;100.00
11345;BME280;5727;42.600;23.028;2023-06-10T00:18:52;93294.31;;;18.49;100.00
11345;BME280;5727;42.600;23.028;2023-06-10T00:21:21;93287.47;;;18.55;100.00
11345;BME280;5727;42.600;23.028;2023-06-10T00:23:50;93285.19;;;18.57;100.00
11345;BME280;5727;42.600;23.028;2023-06-10T00:26:16;93287.81;;;18.64;100.00
11345;BME280;5727;42.600;23.028;2023-06-10T00:28:43;93276.41;;;18.70;100.00
11345;BME280;5727;42.600;23.028;2023-06-10T00:31:10;93282.06;;;18.76;100.00
11345;BME280;5727;42.600;23.028;2023-06-10T00:33:37;93283.19;;;18.82;100.00
11345;BME280;5727;42.600;23.028;2023-06-10T00:36:05;93288.91;;;18.77;100.00
11345;BME280;5727;42.600;23.028;2023-06-10T00:38:32;93283.63;;;18.70;100.00
11345;BME280;5727;42.600;23.028;2023-06-10T00:40:59;93295.00;;;18.60;100.00
11345;BME280;5727;42.600;23.028;2023-06-10T00:43:26;93295.81;;;18.57;100.00
11345;BME280;5727;42.600;23.028;2023-06-10T00:45:53;93300.69;;;18.62;100.00
11345;BME280;5727;42.600;23.028;2023-06-10T00:48:20;93309.03;;;18.64;100.00
11345;BME280;5727;42.600;23.028;2023-06-10T00:50:47;93303.72;;;18.64;100.00
11345;BME280;5727;42.600;23.028;2023-06-10T00:53:16;93310.94;;;18.63;100.00
11345;BME280;5727;42.600;23.028;2023-06-10T00:55:43;93309.03;;;18.60;100.00
11345;BME280;5727;42.600;23.028;2023-06-10T00:58:10;93326.09;;;18.56;100.00
11345;BME280;5727;42.600;23.028;2023-06-10T01:00:37;93324.59;;;18.55;100.00
11345;BME280;5727;42.600;23.028;2023-06-10T01:03:04;93323.13;;;18.22;100.00
11345;BME280;5727;42.600;23.028;2023-06-10T01:05:33;93328.44;;;18.22;100.00
11345;BME280;5727;42.600;23.028;2023-06-10T01:08:04;93327.72;;;18.11;100.00
11345;BME280;5727;42.600;23.028;2023-06-10T01:10:38;93332.25;;;18.03;100.00
11345;BME280;5727;42.600;23.028;2023-06-10T01:13:10;93330.75;;;17.88;100.00
11345;BME280;5727;42.600;23.028;2023-06-10T01:15:38;93324.31;;;17.96;100.00
11345;BME280;5727;42.600;23.028;2023-06-10T01:18:06;93333.03;;;17.93;100.00
11345;BME280;5727;42.600;23.028;2023-06-10T01:20:35;93331.16;;;17.69;100.00
11345;BME280;5727;42.600;23.028;2023-06-10T01:23:07;93334.91;;;17.54;100.00
11345;BME280;5727;42.600;23.028;2023-06-10T01:25:36;93326.94;;;17.44;100.00
11345;BME280;5727;42.600;23.028;2023-06-10T01:28:06;93313.31;;;17.45;100.00
11345;BME280;5727;42.600;23.028;2023-06-10T01:30:43;93310.28;;;17.36;100.00
11345;BME280;5727;42.600;23.028;2023-06-10T01:33:14;93311.09;;;17.58;100.00
11345;BME280;5727;42.600;23.028;2023-06-10T01:35:43;93308.03;;;17.66;100.00
11345;BME280;5727;42.600;23.028;2023-06-10T01:38:14;93307.66;;;17.68;100.00
11345;BME280;5727;42.600;23.028;2023-06-10T01:40:42;93308.06;;;17.77;100.00
11345;BME280;5727;42.600;23.028;2023-06-10T01:43:09;93311.06;;;17.89;100.00
11345;BME280;5727;42.600;23.028;2023-06-10T01:45:35;93308.03;;;17.98;100.00
11345;BME280;5727;42.600;23.028;2023-06-10T01:48:02;93300.44;;;17.96;100.00
11345;BME280;5727;42.600;23.028;2023-06-10T01:50:29;93302.72;;;18.01;100.00
11345;BME280;5727;42.600;23.028;2023-06-10T01:52:57;93299.31;;;18.11;100.00
11345;BME280;5727;42.600;23.028;2023-06-10T01:55:25;93299.69;;;18.17;100.00
11345;BME280;5727;42.600;23.028;2023-06-10T01:57:51;93297.75;;;18.24;100.00
11345;BME280;5727;42.600;23.028;2023-06-10T02:00:18;93295.88;;;18.28;100.00
11345;BME280;5727;42.600;23.028;2023-06-10T02:02:46;93293.97;;;18.33;100.00
11345;BME280;5727;42.600;23.028;2023-06-10T02:05:12;93295.06;;;18.39;100.00
11345;BME280;5727;42.600;23.028;2023-06-10T02:07:39;93294.69;;;18.40;100.00
11345;BME280;5727;42.600;23.028;2023-06-10T02:10:07;93290.53;;;18.43;100.00
11345;BME280;5727;42.600;23.028;2023-06-10T02:12:35;93293.56;;;18.45;100.00
11345;BME280;5727;42.600;23.028;2023-06-10T02:15:02;93295.84;;;18.50;100.00
11345;BME280;5727;42.600;23.028;2023-06-10T02:17:29;93293.94;;;18.54;100.00
11345;BME280;5727;42.600;23.028;2023-06-10T02:19:57;93290.91;;;18.41;100.00
11345;BME280;5727;42.600;23.028;2023-06-10T02:22:25;93297.34;;;18.40;100.00
11345;BME280;5727;42.600;23.028;2023-06-10T02:24:52;93292.06;;;18.44;100.00
11345;BME280;5727;42.600;23.028;2023-06-10T02:27:18;93293.53;;;18.41;100.00
11345;BME280;5727;42.600;23.028;2023-06-10T02:29:47;93295.44;;;18.41;100.00
11345;BME280;5727;42.600;23.028;2023-06-10T02:32:14;93295.84;;;18.43;100.00
11345;BME280;5727;42.600;23.028;2023-06-10T02:34:42;93293.19;;;18.43;100.00
11345;BME280;5727;42.600;23.028;2023-06-10T02:37:09;93289.78;;;18.42;100.00
11345;BME280;5727;42.600;23.028;2023-06-10T02:39:36;93289.78;;;18.46;100.00
11345;BME280;5727;42.600;23.028;2023-06-10T02:42:03;93286.72;;;18.47;100.00
11345;BME280;5727;42.600;23.028;2023-06-10T02:44:30;93277.25;;;18.39;100.00
11345;BME280;5727;42.600;23.028;2023-06-10T02:46:58;93271.59;;;18.34;100.00
11345;BME280;5727;42.600;23.028;2023-06-10T02:49:25;93270.09;;;18.29;100.00
11345;BME280;5727;42.600;23.028;2023-06-10T02:51:53;93271.97;;;18.25;100.00
11345;BME280;5727;42.600;23.028;2023-06-10T02:54:22;93273.91;;;18.21;100.00
11345;BME280;5727;42.600;23.028;2023-06-10T02:56:49;93271.63;;;18.19;100.00
11345;BME280;5727;42.600;23.028;2023-06-10T02:59:15;93270.13;;;18.18;100.00
11345;BME280;5727;42.600;23.028;2023-06-10T03:01:42;93273.91;;;18.21;100.00
11345;BME280;5727;42.600;23.028;2023-06-10T03:04:10;93272.34;;;18.27;100.00
11345;BME280;5727;42.600;23.028;2023-06-10T03:06:39;93279.59;;;18.23;100.00
11345;BME280;5727;42.600;23.028;2023-06-10T03:09:06;93283.78;;;18.06;100.00
11345;BME280;5727;42.600;23.028;2023-06-10T03:11:33;93284.53;;;17.96;100.00
11345;BME280;5727;42.600;23.028;2023-06-10T03:14:00;93288.72;;;17.97;100.00
11345;BME280;5727;42.600;23.028;2023-06-10T03:16:27;93289.84;;;17.96;100.00
11345;BME280;5727;42.600;23.028;2023-06-10T03:18:55;93284.94;;;18.05;100.00
11345;BME280;5727;42.600;23.028;2023-06-10T03:21:23;93289.06;;;18.17;100.00
11345;BME280;5727;42.600;23.028;2023-06-10T03:23:51;93289.41;;;18.26;100.00
11345;BME280;5727;42.600;23.028;2023-06-10T03:26:17;93289.81;;;18.24;100.00
11345;BME280;5727;42.600;23.028;2023-06-10T03:28:47;93293.22;;;18.21;100.00
11345;BME280;5727;42.600;23.028;2023-06-10T03:31:13;93294.34;;;18.27;100.00
11345;BME280;5727;42.600;23.028;2023-06-10T03:33:42;93289.00;;;18.35;100.00
11345;BME280;5727;42.600;23.028;2023-06-10T03:36:08;93285.59;;;18.38;100.00
11345;BME280;5727;42.600;23.028;2023-06-10T03:38:37;93290.53;;;18.43;100.00
11345;BME280;5727;42.600;23.028;2023-06-10T03:41:03;93283.69;;;18.49;100.00
11345;BME280;5727;42.600;23.028;2023-06-10T03:43:30;93285.56;;;18.55;100.00
11345;BME280;5727;42.600;23.028;2023-06-10T03:45:57;93275.69;;;18.56;100.00
11345;BME280;5727;42.600;23.028;2023-06-10T03:48:24;93279.50;;;18.58;100.00
11345;BME280;5727;42.600;23.028;2023-06-10T03:50:51;93270.00;;;18.61;100.00
11345;BME280;5727;42.600;23.028;2023-06-10T03:53:17;93274.16;;;18.62;100.00
11345;BME280;5727;42.600;23.028;2023-06-10T03:55:46;93266.22;;;18.65;100.00
11345;BME280;5727;42.600;23.028;2023-06-10T03:58:13;93268.84;;;18.69;100.00
11345;BME280;5727;42.600;23.028;2023-06-10T04:00:40;93271.47;;;18.76;100.00
11345;BME280;5727;42.600;23.028;2023-06-10T04:03:07;93263.47;;;18.79;100.00
11345;BME280;5727;42.600;23.028;2023-06-10T04:05:40;93262.72;;;18.82;100.00
11345;BME280;5727;42.600;23.028;2023-06-10T04:08:07;93262.72;;;18.79;100.00
11345;BME280;5727;42.600;23.028;2023-06-10T04:10:34;93268.03;;;18.75;100.00
11345;BME280;5727;42.600;23.028;2023-06-10T04:13:02;93261.22;;;18.74;100.00
11345;BME280;5727;42.600;23.028;2023-06-10T04:15:29;93263.16;;;18.70;100.00
11345;BME280;5727;42.600;23.028;2023-06-10T04:17:58;93259.41;;;18.61;100.00
11345;BME280;5727;42.600;23.028;2023-06-10T04:20:25;93263.56;;;18.58;100.00
11345;BME280;5727;42.600;23.028;2023-06-10T04:22:51;93267.00;;;18.48;100.00
11345;BME280;5727;42.600;23.028;2023-06-10T04:25:18;93270.41;;;18.59;100.00
11345;BME280;5727;42.600;23.028;2023-06-10T04:27:45;93275.69;;;18.63;100.00
11345;BME280;5727;42.600;23.028;2023-06-10T04:30:14;93274.50;;;18.67;100.00
11345;BME280;5727;42.600;23.028;2023-06-10T04:32:41;93279.41;;;18.79;100.00
11345;BME280;5727;42.600;23.028;2023-06-10T04:35:11;93278.31;;;18.70;100.00
11345;BME280;5727;42.600;23.028;2023-06-10T04:37:38;93284.34;;;18.74;100.00
11345;BME280;5727;42.600;23.028;2023-06-10T04:40:06;93277.50;;;18.83;100.00
11345;BME280;5727;42.600;23.028;2023-06-10T04:42:33;93284.25;;;18.95;100.00
11345;BME280;5727;42.600;23.028;2023-06-10T04:44:59;93289.47;;;19.12;100.00
11345;BME280;5727;42.600;23.028;2023-06-10T04:47:27;93279.94;;;19.22;100.00
11345;BME280;5727;42.600;23.028;2023-06-10T04:49:54;93294.72;;;19.19;100.00
11345;BME280;5727;42.600;23.028;2023-06-10T04:52:21;93283.31;;;19.26;100.00
11345;BME280;5727;42.600;23.028;2023-06-10T04:54:48;93287.16;;;19.18;100.00
11345;BME280;5727;42.600;23.028;2023-06-10T04:57:14;93289.41;;;19.23;100.00
11345;BME280;5727;42.600;23.028;2023-06-10T04:59:41;93289.03;;;19.21;100.00
11345;BME280;5727;42.600;23.028;2023-06-10T05:02:08;93288.16;;;18.76;100.00
11345;BME280;5727;42.600;23.028;2023-06-10T05:04:36;93285.16;;;18.64;100.00
11345;BME280;5727;42.600;23.028;2023-06-10T05:07:03;93287.47;;;18.41;100.00
11345;BME280;5727;42.600;23.028;2023-06-10T05:09:30;93289.78;;;18.46;100.00
11345;BME280;5727;42.600;23.028;2023-06-10T05:11:58;93293.94;;;18.43;100.00
11345;BME280;5727;42.600;23.028;2023-06-10T05:14:24;93293.59;;;18.31;100.00
11345;BME280;5727;42.600;23.028;2023-06-10T05:16:51;93292.09;;;18.22;100.00
11345;BME280;5727;42.600;23.028;2023-06-10T05:19:18;93295.88;;;18.14;100.00
11345;BME280;5727;42.600;23.028;2023-06-10T05:21:46;93289.44;;;18.15;100.00
11345;BME280;5727;42.600;23.028;2023-06-10T05:24:13;93289.03;;;18.24;100.00
11345;BME280;5727;42.600;23.028;2023-06-10T05:26:40;93300.44;;;18.21;100.00
11345;BME280;5727;42.600;23.028;2023-06-10T05:29:07;93285.63;;;18.23;100.00
11345;BME280;5727;42.600;23.028;2023-06-10T05:31:34;93292.78;;;18.41;100.00
11345;BME280;5727;42.600;23.028;2023-06-10T05:34:01;93296.97;;;18.38;100.00
11345;BME280;5727;42.600;23.028;2023-06-10T05:36:28;93289.38;;;18.47;100.00
11345;BME280;5727;42.600;23.028;2023-06-10T05:38:56;93296.59;;;18.40;100.00
11345;BME280;5727;42.600;23.028;2023-06-10T05:41:23;93293.53;;;18.55;100.00
11345;BME280;5727;42.600;23.028;2023-06-10T05:43:50;93296.13;;;18.66;100.00
11345;BME280;5727;42.600;23.028;2023-06-10T05:46:17;93297.59;;;18.84;100.00
11345;BME280;5727;42.600;23.028;2023-06-10T05:48:44;93306.94;;;19.10;100.00
11345;BME280;5727;42.600;23.028;2023-06-10T05:51:11;93300.75;;;19.27;100.00
11345;BME280;5727;42.600;23.028;2023-06-10T05:53:37;93304.09;;;19.45;100.00
11345;BME280;5727;42.600;23.028;2023-06-10T05:56:06;93305.16;;;19.55;100.00
11345;BME280;5727;42.600;23.028;2023-06-10T05:58:33;93297.94;;;19.59;100.00
11345;BME280;5727;42.600;23.028;2023-06-10T06:01:01;93306.66;;;19.59;100.00
11345;BME280;5727;42.600;23.028;2023-06-10T06:03:28;93305.72;;;19.80;100.00
11345;BME280;5727;42.600;23.028;2023-06-10T06:05:55;93306.44;;;19.87;100.00
11345;BME280;5727;42.600;23.028;2023-06-10T06:08:21;93311.81;;;19.80;100.00
11345;BME280;5727;42.600;23.028;2023-06-10T06:10:50;93305.34;;;19.81;100.00
11345;BME280;5727;42.600;23.028;2023-06-10T06:13:18;93303.34;;;19.92;100.00
11345;BME280;5727;42.600;23.028;2023-06-10T06:15:45;93308.66;;;19.92;100.00
11345;BME280;5727;42.600;23.028;2023-06-10T06:18:11;93303.41;;;19.85;100.00
11345;BME280;5727;42.600;23.028;2023-06-10T06:20:38;93316.47;;;19.66;100.00
11345;BME280;5727;42.600;23.028;2023-06-10T06:23:05;93315.00;;;19.61;100.00
11345;BME280;5727;42.600;23.028;2023-06-10T06:25:34;93308.03;;;19.78;100.00
11345;BME280;5727;42.600;23.028;2023-06-10T06:28:01;93306.88;;;19.79;100.00
11345;BME280;5727;42.600;23.028;2023-06-10T06:30:29;93316.91;;;19.61;100.00
11345;BME280;5727;42.600;23.028;2023-06-10T06:32:56;93320.19;;;19.75;100.00
11345;BME280;5727;42.600;23.028;2023-06-10T06:35:23;93317.06;;;19.87;100.00
11345;BME280;5727;42.600;23.028;2023-06-10T06:37:49;93319.63;;;19.98;100.00
11345;BME280;5727;42.600;23.028;2023-06-10T06:40:16;93318.31;;;20.17;100.00
11345;BME280;5727;42.600;23.028;2023-06-10T06:42:43;93316.28;;;20.35;100.00
11345;BME280;5727;42.600;23.028;2023-06-10T06:45:10;93320.91;;;20.27;100.00
11345;BME280;5727;42.600;23.028;2023-06-10T06:47:38;93309.84;;;20.32;100.00
11345;BME280;5727;42.600;23.028;2023-06-10T06:50:05;93315.91;;;20.36;100.00
11345;BME280;5727;42.600;23.028;2023-06-10T06:52:32;93308.16;;;20.49;100.00
11345;BME280;5727;42.600;23.028;2023-06-10T06:54:59;93306.38;;;20.72;100.00
11345;BME280;5727;42.600;23.028;2023-06-10T06:57:25;93311.81;;;20.92;100.00
11345;BME280;5727;42.600;23.028;2023-06-10T06:59:52;93303.94;;;20.85;100.00
11345;BME280;5727;42.600;23.028;2023-06-10T07:02:19;93308.38;;;20.95;100.00
11345;BME280;5727;42.600;23.028;2023-06-10T07:04:47;93302.66;;;21.27;100.00
11345;BME280;5727;42.600;23.028;2023-06-10T07:07:15;93304.56;;;21.53;100.00
11345;BME280;5727;42.600;23.028;2023-06-10T07:09:42;93300.72;;;21.80;100.00
11345;BME280;5727;42.600;23.028;2023-06-10T07:12:09;93301.34;;;21.92;100.00
11345;BME280;5727;42.600;23.028;2023-06-10T07:14:36;93296.69;;;22.19;100.00
11345;BME280;5727;42.600;23.028;2023-06-10T07:17:03;93297.94;;;22.34;100.00
11345;BME280;5727;42.600;23.028;2023-06-10T07:19:30;93304.75;;;22.58;100.00
11345;BME280;5727;42.600;23.028;2023-06-10T07:21:58;93300.59;;;22.77;100.00
11345;BME280;5727;42.600;23.028;2023-06-10T07:24:24;93306.88;;;22.86;100.00
11345;BME280;5727;42.600;23.028;2023-06-10T07:26:51;93303.41;;;22.89;100.00
11345;BME280;5727;42.600;23.028;2023-06-10T07:29:18;93302.78;;;23.01;100.00
11345;BME280;5727;42.600;23.028;2023-06-10T07:31:45;93299.81;;;22.96;100.00
11345;BME280;5727;42.600;23.028;2023-06-10T07:34:11;93292.94;;;22.59;100.00
11345;BME280;5727;42.600;23.028;2023-06-10T07:36:38;93297.56;;;22.55;100.00
11345;BME280;5727;42.600;23.028;2023-06-10T07:39:06;93291.44;;;22.54;100.00
11345;BME280;5727;42.600;23.028;2023-06-10T07:41:34;93294.44;;;22.60;100.00
11345;BME280;5727;42.600;23.028;2023-06-10T07:44:00;93288.44;;;22.52;100.00
11345;BME280;5727;42.600;23.028;2023-06-10T07:46:27;93287.72;;;22.71;100.00
11345;BME280;5727;42.600;23.028;2023-06-10T07:48:54;93288.50;;;22.49;100.00
11345;BME280;5727;42.600;23.028;2023-06-10T07:51:21;93284.72;;;22.04;100.00
11345;BME280;5727;42.600;23.028;2023-06-10T07:53:48;93295.09;;;22.21;100.00
11345;BME280;5727;42.600;23.028;2023-06-10T07:56:17;93286.94;;;22.09;100.00
11345;BME280;5727;42.600;23.028;2023-06-10T07:58:43;93290.06;;;22.04;100.00
11345;BME280;5727;42.600;23.028;2023-06-10T08:01:10;93297.50;;;22.16;100.00
11345;BME280;5727;42.600;23.028;2023-06-10T08:03:37;93294.22;;;22.28;100.00
11345;BME280;5727;42.600;23.028;2023-06-10T08:06:04;93296.00;;;22.34;100.00
11345;BME280;5727;42.600;23.028;2023-06-10T08:08:31;93292.41;;;22.44;100.00
11345;BME280;5727;42.600;23.028;2023-06-10T08:10:57;93295.72;;;22.29;100.00
11345;BME280;5727;42.600;23.028;2023-06-10T08:13:26;93282.56;;;22.41;100.00
11345;BME280;5727;42.600;23.028;2023-06-10T08:15:52;93274.81;;;22.47;100.00
11345;BME280;5727;42.600;23.028;2023-06-10T08:18:21;93284.22;;;22.74;100.00
11345;BME280;5727;42.600;23.028;2023-06-10T08:20:47;93284.09;;;22.82;100.00
11345;BME280;5727;42.600;23.028;2023-06-10T08:23:14;93273.00;;;22.63;100.00
11345;BME280;5727;42.600;23.028;2023-06-10T08:25:41;93267.56;;;22.47;100.00
11345;BME280;5727;42.600;23.028;2023-06-10T08:28:08;93282.53;;;22.64;100.00
11345;BME280;5727;42.600;23.028;2023-06-10T08:30:36;93274.13;;;22.43;100.00
11345;BME280;5727;42.600;23.028;2023-06-10T08:33:03;93278.22;;;22.28;100.00
11345;BME280;5727;42.600;23.028;2023-06-10T08:35:30;93266.66;;;22.34;100.00
11345;BME280;5727;42.600;23.028;2023-06-10T08:37:57;93268.88;;;22.39;100.00
11345;BME280;5727;42.600;23.028;2023-06-10T08:40:26;93269.72;;;22.33;100.00
11345;BME280;5727;42.600;23.028;2023-06-10T08:42:59;93264.53;;;22.26;100.00
11345;BME280;5727;42.600;23.028;2023-06-10T08:45:29;93256.03;;;22.31;100.00
11345;BME280;5727;42.600;23.028;2023-06-10T08:47:59;93250.38;;;22.48;99.13
11345;BME280;5727;42.600;23.028;2023-06-10T08:50:28;93254.66;;;22.65;95.92
11345;BME280;5727;42.600;23.028;2023-06-10T08:52:57;93251.47;;;22.90;96.45
11345;BME280;5727;42.600;23.028;2023-06-10T08:55:29;93253.16;;;23.00;90.34
11345;BME280;5727;42.600;23.028;2023-06-10T08:57:58;93259.63;;;22.83;90.72
11345;BME280;5727;42.600;23.028;2023-06-10T09:00:26;93257.50;;;22.94;91.48
11345;BME280;5727;42.600;23.028;2023-06-10T09:02:54;93248.59;;;23.01;91.56
11345;BME280;5727;42.600;23.028;2023-06-10T09:05:23;93254.06;;;23.29;87.67
11345;BME280;5727;42.600;23.028;2023-06-10T09:07:51;93248.91;;;23.38;85.20
11345;BME280;5727;42.600;23.028;2023-06-10T09:10:19;93250.19;;;23.50;83.09
11345;BME280;5727;42.600;23.028;2023-06-10T09:12:46;93251.09;;;23.59;81.87
11345;BME280;5727;42.600;23.028;2023-06-10T09:15:13;93242.41;;;23.55;80.60
11345;BME280;5727;42.600;23.028;2023-06-10T09:17:42;93233.72;;;23.68;80.81
11345;BME280;5727;42.600;23.028;2023-06-10T09:20:10;93224.59;;;23.81;82.96
11345;BME280;5727;42.600;23.028;2023-06-10T09:22:40;93232.38;;;23.92;81.83
11345;BME280;5727;42.600;23.028;2023-06-10T09:25:10;93219.91;;;23.85;83.43
11345;BME280;5727;42.600;23.028;2023-06-10T09:27:45;93224.66;;;23.94;85.44
11345;BME280;5727;42.600;23.028;2023-06-10T09:30:24;93221.41;;;24.02;76.86
11345;BME280;5727;42.600;23.028;2023-06-10T09:32:53;93216.22;;;23.95;73.79
11345;BME280;5727;42.600;23.028;2023-06-10T09:35:21;93208.03;;;24.31;74.56
11345;BME280;5727;42.600;23.028;2023-06-10T09:37:51;93210.19;;;24.65;71.74
11345;BME280;5727;42.600;23.028;2023-06-10T09:40:19;93209.16;;;24.75;71.39
11345;BME280;5727;42.600;23.028;2023-06-10T09:42:46;93206.69;;;24.80;68.32
11345;BME280;5727;42.600;23.028;2023-06-10T09:45:19;93204.88;;;24.77;68.72
11345;BME280;5727;42.600;23.028;2023-06-10T09:47:45;93198.84;;;24.73;69.23
11345;BME280;5727;42.600;23.028;2023-06-10T09:50:12;93193.00;;;25.16;68.62
11345;BME280;5727;42.600;23.028;2023-06-10T09:52:40;93196.53;;;25.38;66.14
11345;BME280;5727;42.600;23.028;2023-06-10T09:55:09;93200.91;;;24.94;69.65
11345;BME280;5727;42.600;23.028;2023-06-10T09:57:37;93194.44;;;24.67;70.62
11345;BME280;5727;42.600;23.028;2023-06-10T10:00:05;93191.19;;;24.88;70.77
11345;BME280;5727;42.600;23.028;2023-06-10T10:02:45;93191.50;;;25.27;69.95
11345;BME280;5727;42.600;23.028;2023-06-10T10:05:13;93196.81;;;25.78;69.55
11345;BME280;5727;42.600;23.028;2023-06-10T10:07:41;93190.41;;;25.63;68.19
11345;BME280;5727;42.600;23.028;2023-06-10T10:10:10;93189.03;;;25.33;70.46
11345;BME280;5727;42.600;23.028;2023-06-10T10:12:39;93187.75;;;25.37;70.57
11345;BME280;5727;42.600;23.028;2023-06-10T10:15:08;93182.66;;;25.65;69.69
11345;BME280;5727;42.600;23.028;2023-06-10T10:17:37;93181.19;;;26.10;67.93
11345;BME280;5727;42.600;23.028;2023-06-10T10:20:12;93183.66;;;25.92;64.98
11345;BME280;5727;42.600;23.028;2023-06-10T10:22:43;93178.56;;;25.73;63.89
11345;BME280;5727;42.600;23.028;2023-06-10T10:25:16;93178.50;;;26.10;64.06
11345;BME280;5727;42.600;23.028;2023-06-10T10:27:44;93167.88;;;25.94;63.26
11345;BME280;5727;42.600;23.028;2023-06-10T10:30:17;93172.38;;;26.10;61.59
11345;BME280;5727;42.600;23.028;2023-06-10T10:32:52;93177.63;;;26.35;59.02
11345;BME280;5727;42.600;23.028;2023-06-10T10:35:23;93168.25;;;26.40;60.15
11345;BME280;5727;42.600;23.028;2023-06-10T10:37:52;93177.31;;;26.11;60.26
11345;BME280;5727;42.600;23.028;2023-06-10T10:40:21;93178.00;;;25.90;63.92
11345;BME280;5727;42.600;23.028;2023-06-10T10:42:49;93173.81;;;25.43;65.54
11345;BME280;5727;42.600;23.028;2023-06-10T10:45:16;93178.41;;;25.29;65.83
11345;BME280;5727;42.600;23.028;2023-06-10T10:47:45;93165.53;;;25.24;68.86
11345;BME280;5727;42.600;23.028;2023-06-10T10:50:16;93157.59;;;25.33;68.76
11345;BME280;5727;42.600;23.028;2023-06-10T10:52:52;93170.69;;;25.31;68.93
11345;BME280;5727;42.600;23.028;2023-06-10T10:55:21;93170.38;;;25.04;69.93
11345;BME280;5727;42.600;23.028;2023-06-10T10:57:55;93164.59;;;25.06;70.88
11345;BME280;5727;42.600;23.028;2023-06-10T11:00:29;93155.34;;;25.45;71.01
11345;BME280;5727;42.600;23.028;2023-06-10T11:03:02;93159.88;;;25.82;66.38
11345;BME280;5727;42.600;23.028;2023-06-10T11:05:36;93156.94;;;26.23;65.99
11345;BME280;5727;42.600;23.028;2023-06-10T11:08:03;93150.88;;;26.53;62.24
11345;BME280;5727;42.600;23.028;2023-06-10T11:10:32;93150.44;;;26.76;62.89
11345;BME280;5727;42.600;23.028;2023-06-10T11:13:00;93141.22;;;26.86;63.02
11345;BME280;5727;42.600;23.028;2023-06-10T11:15:28;93139.16;;;26.90;63.81
11345;BME280;5727;42.600;23.028;2023-06-10T11:18:19;93143.81;;;26.68;64.53
11345;BME280;5727;42.600;23.028;2023-06-10T11:20:55;93140.84;;;26.23;65.80
11345;BME280;5727;42.600;23.028;2023-06-10T11:23:39;93143.91;;;26.00;63.71
11345;BME280;5727;42.600;23.028;2023-06-10T11:26:29;93138.88;;;26.02;63.61
11345;BME280;5727;42.600;23.028;2023-06-10T11:29:03;93135.25;;;25.62;64.25
11345;BME280;5727;42.600;23.028;2023-06-10T11:31:31;93127.53;;;25.64;63.54
11345;BME280;5727;42.600;23.028;2023-06-10T11:34:00;93134.63;;;25.58;65.22
11345;BME280;5727;42.600;23.028;2023-06-10T11:36:28;93117.25;;;25.50;67.48
11345;BME280;5727;42.600;23.028;2023-06-10T11:38:56;93132.03;;;25.88;67.54
11345;BME280;5727;42.600;23.028;2023-06-10T11:41:25;93131.78;;;24.89;79.78
11345;BME280;5727;42.600;23.028;2023-06-10T11:43:53;93129.09;;;24.77;79.02
11345;BME280;5727;42.600;23.028;2023-06-10T11:46:21;93117.88;;;24.82;79.76
11345;BME280;5727;42.600;23.028;2023-06-10T11:48:51;93116.22;;;25.22;76.26
11345;BME280;5727;42.600;23.028;2023-06-10T11:51:18;93115.16;;;25.19;78.40
11345;BME280;5727;42.600;23.028;2023-06-10T11:53:45;93125.78;;;24.85;81.66
11345;BME280;5727;42.600;23.028;2023-06-10T11:56:12;93112.59;;;24.78;82.50
11345;BME280;5727;42.600;23.028;2023-06-10T11:58:43;93111.75;;;24.81;82.40
11345;BME280;5727;42.600;23.028;2023-06-10T12:01:19;93118.56;;;24.70;81.90
11345;BME280;5727;42.600;23.028;2023-06-10T12:03:46;93124.06;;;24.79;82.13
11345;BME280;5727;42.600;23.028;2023-06-10T12:06:13;93118.03;;;24.62;84.70
11345;BME280;5727;42.600;23.028;2023-06-10T12:08:41;93119.19;;;24.61;85.04
11345;BME280;5727;42.600;23.028;2023-06-10T12:11:09;93119.75;;;24.56;81.01
11345;BME280;5727;42.600;23.028;2023-06-10T12:13:36;93123.56;;;24.42;81.24
11345;BME280;5727;42.600;23.028;2023-06-10T12:16:08;93121.22;;;24.32;84.40
11345;BME280;5727;42.600;23.028;2023-06-10T12:18:35;93127.00;;;24.43;83.91
11345;BME280;5727;42.600;23.028;2023-06-10T12:21:02;93124.84;;;24.25;85.96
11345;BME280;5727;42.600;23.028;2023-06-10T12:23:30;93121.97;;;24.45;84.31
11345;BME280;5727;42.600;23.028;2023-06-10T12:25:57;93112.88;;;24.42;82.36
11345;BME280;5727;42.600;23.028;2023-06-10T12:28:26;93114.94;;;24.51;81.98
11345;BME280;5727;42.600;23.028;2023-06-10T12:31:07;93116.34;;;24.81;81.03
11345;BME280;5727;42.600;23.028;2023-06-10T12:33:34;93109.81;;;24.94;79.93
11345;BME280;5727;42.600;23.028;2023-06-10T12:36:01;93112.38;;;24.98;79.13
11345;BME280;5727;42.600;23.028;2023-06-10T12:41:01;93106.47;;;25.15;79.18
11345;BME280;5727;42.600;23.028;2023-06-10T12:43:28;93117.91;;;25.28;79.17
11345;BME280;5727;42.600;23.028;2023-06-10T12:45:54;93105.22;;;25.54;80.08
11345;BME280;5727;42.600;23.028;2023-06-10T12:48:23;93101.53;;;25.73;79.02
11345;BME280;5727;42.600;23.028;2023-06-10T12:50:52;93099.16;;;25.41;78.08
11345;BME280;5727;42.600;23.028;2023-06-10T12:53:20;93093.41;;;25.86;76.72
11345;BME280;5727;42.600;23.028;2023-06-10T12:55:48;93112.41;;;26.35;75.31
11345;BME280;5727;42.600;23.028;2023-06-10T12:58:15;93103.81;;;27.86;66.82
11345;BME280;5727;42.600;23.028;2023-06-10T13:00:41;93096.00;;;29.58;59.08